createdAt,value
2022-10-13T00:01:40.963Z,12.55
2022-10-13T00:04:11.268Z,12.55
2022-10-13T00:06:40.209Z,11.50
2022-10-13T00:09:09.233Z,12.30
2022-10-13T00:11:38.211Z,13.05
2022-10-13T00:14:07.230Z,13.15
2022-10-13T00:16:38.049Z,11.38
2022-10-13T00:19:09.730Z,11.80
2022-10-13T00:21:42.012Z,12.50
2022-10-13T00:24:12.339Z,13.18
2022-10-13T00:26:41.405Z,12.27
2022-10-13T00:29:21.147Z,12.43
2022-10-13T00:31:50.294Z,12.52
2022-10-13T00:34:19.311Z,11.85
2022-10-13T00:36:49.628Z,13.50
2022-10-13T00:39:18.782Z,12.15
2022-10-13T00:41:47.857Z,11.23
2022-10-13T00:45:04.328Z,12.18
2022-10-13T00:47:39.565Z,12.05
2022-10-13T00:50:12.542Z,11.70
2022-10-13T00:52:44.137Z,10.30
2022-10-13T00:55:15.137Z,11.90
2022-10-13T00:57:48.077Z,11.95
2022-10-13T01:00:17.750Z,11.88
2022-10-13T01:02:46.737Z,11.10
2022-10-13T01:05:16.627Z,10.60
2022-10-13T01:07:49.485Z,11.77
2022-10-13T01:10:37.166Z,11.02
2022-10-13T01:13:14.398Z,11.75
2022-10-13T01:15:50.831Z,13.18
2022-10-13T01:18:29.070Z,11.43
2022-10-13T01:21:13.067Z,13.40
2022-10-13T01:24:43.977Z,12.75
2022-10-13T01:27:48.682Z,10.88
2022-10-13T01:30:21.086Z,11.85
2022-10-13T01:33:21.336Z,12.88
2022-10-13T01:36:12.658Z,11.13
2022-10-13T01:38:51.198Z,10.55
2022-10-13T01:41:26.093Z,12.70
2022-10-13T01:44:02.605Z,11.80
2022-10-13T01:46:36.876Z,12.10
2022-10-13T01:49:11.119Z,13.15
2022-10-13T01:51:41.470Z,11.90
2022-10-13T01:54:11.239Z,13.45
2022-10-13T01:56:40.226Z,12.65
2022-10-13T01:59:18.505Z,14.23
2022-10-13T02:02:04.338Z,13.00
2022-10-13T02:04:48.537Z,12.93
2022-10-13T02:07:25.176Z,13.02
2022-10-13T02:10:04.421Z,12.50
2022-10-13T02:12:41.343Z,13.80
2022-10-13T02:15:17.459Z,13.02
2022-10-13T02:17:48.653Z,14.25
2022-10-13T02:20:20.867Z,14.20
2022-10-13T02:22:57.872Z,12.75
2022-10-13T02:25:27.395Z,13.43
2022-10-13T02:27:59.501Z,13.40
2022-10-13T02:30:34.158Z,12.63
2022-10-13T02:33:04.940Z,13.32
2022-10-13T02:35:34.031Z,13.18
2022-10-13T02:38:04.308Z,13.10
2022-10-13T02:40:33.279Z,14.07
2022-10-13T02:43:02.412Z,12.57
2022-10-13T02:45:31.556Z,13.25
2022-10-13T02:48:00.592Z,14.20
2022-10-13T02:50:30.925Z,13.65
2022-10-13T02:53:01.110Z,13.38
2022-10-13T02:55:30.216Z,14.98
2022-10-13T02:57:59.374Z,15.32
2022-10-13T03:00:28.395Z,13.18
2022-10-13T03:02:57.513Z,13.93
2022-10-13T03:05:26.557Z,14.48
2022-10-13T03:07:57.010Z,13.10
2022-10-13T03:10:26.149Z,14.40
2022-10-13T03:12:57.290Z,13.73
2022-10-13T03:15:26.829Z,13.35
2022-10-13T03:17:58.017Z,14.20
2022-10-13T03:20:27.030Z,14.23
2022-10-13T03:22:57.338Z,13.82
2022-10-13T03:25:26.440Z,14.77
2022-10-13T03:27:56.901Z,12.93
2022-10-13T03:30:26.319Z,16.48
2022-10-13T03:32:55.298Z,15.55
2022-10-13T03:35:24.533Z,15.57
2022-10-13T03:37:53.510Z,16.75
2022-10-13T03:40:25.599Z,15.50
2022-10-13T03:42:54.725Z,16.00
2022-10-13T03:45:23.797Z,16.67
2022-10-13T03:47:52.988Z,18.00
2022-10-13T03:50:22.272Z,17.60
2022-10-13T03:52:51.901Z,17.35
2022-10-13T03:55:21.057Z,17.63
2022-10-13T03:57:51.421Z,16.80
2022-10-13T04:00:20.506Z,18.33
2022-10-13T04:02:50.663Z,17.55
2022-10-13T04:05:19.612Z,17.98
2022-10-13T04:07:48.591Z,16.92
2022-10-13T04:10:20.905Z,21.35
2022-10-13T04:12:53.065Z,21.30
2022-10-13T04:15:22.297Z,21.80
2022-10-13T04:17:51.421Z,20.63
2022-10-13T04:20:20.543Z,18.77
2022-10-13T04:22:49.523Z,17.33
2022-10-13T04:25:18.771Z,19.02
2022-10-13T04:27:48.438Z,19.70
2022-10-13T04:30:18.958Z,17.98
2022-10-13T04:32:48.007Z,15.40
2022-10-13T04:35:18.957Z,16.67
2022-10-13T04:37:47.919Z,16.92
2022-10-13T04:40:17.054Z,16.95
2022-10-13T04:42:46.073Z,19.58
2022-10-13T04:45:15.232Z,17.48
2022-10-13T04:47:46.419Z,17.33
2022-10-13T04:50:15.697Z,16.02
2022-10-13T04:52:44.781Z,16.40
2022-10-13T04:55:13.757Z,17.27
2022-10-13T04:57:42.900Z,16.55
2022-10-13T05:00:13.675Z,16.90
2022-10-13T05:02:42.701Z,16.70
2022-10-13T05:05:13.261Z,16.85
2022-10-13T05:07:42.242Z,16.13
2022-10-13T05:10:11.602Z,15.43
2022-10-13T05:12:40.606Z,17.30
2022-10-13T05:15:10.958Z,16.50
2022-10-13T05:17:39.913Z,16.17
2022-10-13T05:20:13.314Z,17.67
2022-10-13T05:22:42.322Z,19.23
2022-10-13T05:25:11.579Z,18.83
2022-10-13T05:27:40.522Z,20.70
2022-10-13T05:30:13.370Z,18.92
2022-10-13T05:32:42.457Z,18.27
2022-10-13T05:35:12.868Z,19.50
2022-10-13T05:37:42.589Z,19.98
2022-10-13T05:40:13.071Z,16.75
2022-10-13T05:42:42.146Z,15.55
2022-10-13T05:45:13.598Z,16.45
2022-10-13T05:47:45.247Z,15.93
2022-10-13T05:50:15.917Z,15.60
2022-10-13T05:52:46.349Z,16.58
2022-10-13T05:55:19.046Z,18.10
2022-10-13T05:57:52.090Z,19.42
2022-10-13T06:00:22.110Z,17.73
2022-10-13T06:02:56.029Z,17.23
2022-10-13T06:05:28.750Z,15.65
2022-10-13T06:07:58.225Z,14.85
2022-10-13T06:10:27.917Z,17.67
2022-10-13T06:12:56.966Z,16.58
2022-10-13T06:15:28.346Z,17.27
2022-10-13T06:17:58.617Z,20.20
2022-10-13T06:20:29.418Z,19.00
2022-10-13T06:22:58.733Z,19.20
2022-10-13T06:25:29.233Z,18.80
2022-10-13T06:28:00.058Z,18.15
2022-10-13T06:30:29.749Z,16.67
2022-10-13T06:32:58.695Z,18.40
2022-10-13T06:35:29.347Z,17.08
2022-10-13T06:37:58.990Z,18.25
2022-10-13T06:40:27.942Z,16.33
2022-10-13T06:42:57.128Z,16.45
2022-10-13T06:45:26.349Z,15.70
2022-10-13T06:47:56.007Z,17.20
2022-10-13T06:50:25.575Z,18.95
2022-10-13T06:52:58.000Z,18.17
2022-10-13T06:55:27.791Z,17.10
2022-10-13T06:57:56.888Z,18.20
2022-10-13T07:00:26.070Z,17.38
2022-10-13T07:02:55.215Z,17.10
2022-10-13T07:05:24.190Z,18.02
2022-10-13T07:07:53.950Z,17.45
2022-10-13T07:10:24.453Z,17.63
2022-10-13T07:12:53.538Z,16.88
2022-10-13T07:15:25.517Z,15.15
2022-10-13T07:17:55.395Z,16.48
2022-10-13T07:20:25.438Z,17.17
2022-10-13T07:22:55.692Z,17.80
2022-10-13T07:25:28.899Z,17.38
2022-10-13T07:27:59.792Z,16.35
2022-10-13T07:30:29.054Z,16.23
2022-10-13T07:32:58.196Z,17.30
2022-10-13T07:35:30.723Z,16.55
2022-10-13T07:38:00.205Z,15.88
2022-10-13T07:40:30.647Z,15.88
2022-10-13T07:42:59.806Z,15.43
2022-10-13T07:45:28.877Z,14.85
2022-10-13T07:47:58.229Z,14.95
2022-10-13T07:50:27.190Z,15.40
2022-10-13T07:52:56.363Z,14.82
2022-10-13T07:55:25.345Z,15.65
2022-10-13T07:57:57.806Z,14.90
2022-10-13T08:00:26.788Z,14.60
2022-10-13T08:02:56.002Z,15.98
2022-10-13T08:05:25.064Z,15.30
2022-10-13T08:07:56.034Z,14.15
2022-10-13T08:10:29.903Z,15.07
2022-10-13T08:13:02.840Z,14.02
2022-10-13T08:15:31.898Z,13.50
2022-10-13T08:18:00.906Z,13.55
2022-10-13T08:20:40.846Z,14.07
2022-10-13T08:23:13.813Z,13.35
2022-10-13T08:25:50.768Z,14.73
2022-10-13T08:28:24.190Z,14.23
2022-10-13T08:30:55.477Z,12.38
2022-10-13T08:33:28.493Z,13.05
2022-10-13T08:35:58.120Z,12.45
2022-10-13T08:38:28.586Z,13.07
2022-10-13T08:41:00.033Z,10.93
2022-10-13T08:43:30.893Z,11.38
2022-10-13T08:46:02.382Z,11.18
2022-10-13T08:48:36.211Z,11.23
2022-10-13T08:51:09.049Z,11.00
2022-10-13T08:53:41.994Z,12.45
2022-10-13T08:56:19.205Z,11.88
2022-10-13T08:58:54.287Z,11.52
2022-10-13T09:01:26.386Z,9.73
2022-10-13T09:03:58.301Z,12.05
2022-10-13T09:06:32.020Z,10.70
2022-10-13T09:09:03.771Z,10.25
2022-10-13T09:11:38.935Z,10.80
2022-10-13T09:14:14.053Z,10.90
2022-10-13T09:16:45.706Z,9.52
2022-10-13T09:19:27.285Z,10.70
2022-10-13T09:21:59.416Z,9.77
2022-10-13T09:24:28.779Z,9.65
2022-10-13T09:27:11.259Z,10.20
2022-10-13T09:29:44.764Z,10.18
2022-10-13T09:32:19.738Z,9.45
2022-10-13T09:34:49.780Z,9.98
2022-10-13T09:37:22.554Z,8.25
2022-10-13T09:40:03.452Z,9.27
2022-10-13T09:42:33.361Z,8.93
2022-10-13T09:45:17.238Z,8.98
2022-10-13T09:47:53.386Z,9.27
2022-10-13T09:50:26.023Z,9.27
2022-10-13T09:53:20.687Z,10.10
2022-10-13T09:55:50.004Z,8.32
2022-10-13T09:58:28.858Z,8.20
2022-10-13T10:00:59.939Z,8.50
2022-10-13T10:03:33.523Z,8.50
2022-10-13T10:06:04.770Z,9.07
2022-10-13T10:09:03.709Z,7.90
2022-10-13T10:11:39.591Z,8.18
2022-10-13T10:14:26.282Z,8.25
2022-10-13T10:17:05.694Z,7.85
2022-10-13T10:19:55.031Z,8.93
2022-10-13T10:22:37.344Z,7.57
2022-10-13T10:25:27.158Z,7.50
2022-10-13T10:28:32.731Z,7.82
2022-10-13T10:31:14.953Z,9.13
2022-10-13T10:34:00.442Z,7.50
2022-10-13T10:36:41.052Z,8.13
2022-10-13T10:39:22.912Z,8.70
2022-10-13T10:41:58.979Z,8.38
2022-10-13T10:44:32.565Z,7.78
2022-10-13T10:47:08.030Z,7.85
2022-10-13T10:49:39.370Z,7.32
2022-10-13T10:52:12.722Z,7.63
2022-10-13T10:54:57.863Z,6.88
2022-10-13T10:57:36.109Z,8.15
2022-10-13T11:00:09.265Z,10.57
2022-10-13T11:02:54.863Z,7.78
2022-10-13T11:05:25.309Z,7.25
2022-10-13T11:08:00.310Z,7.85
2022-10-13T11:10:30.607Z,7.70
2022-10-13T11:13:26.828Z,7.07
2022-10-13T11:15:56.517Z,7.20
2022-10-13T11:19:05.946Z,8.20
2022-10-13T11:22:17.104Z,7.90
2022-10-13T11:25:20.770Z,6.85
2022-10-13T11:27:49.825Z,6.13
2022-10-13T11:30:50.197Z,7.60
2022-10-13T11:33:37.654Z,6.70
2022-10-13T11:36:52.395Z,8.13
2022-10-13T11:40:06.748Z,7.35
2022-10-13T11:43:21.495Z,7.25
2022-10-13T11:46:08.004Z,6.90
2022-10-13T11:49:16.988Z,6.53
2022-10-13T11:52:14.542Z,7.70
2022-10-13T11:54:51.207Z,8.10
2022-10-13T11:57:25.185Z,8.30
2022-10-13T11:59:57.147Z,6.55
2022-10-13T12:02:32.070Z,8.32
2022-10-13T12:05:05.406Z,7.57
2022-10-13T12:07:42.956Z,7.65
2022-10-13T12:10:22.296Z,6.68
2022-10-13T12:12:53.194Z,6.85
2022-10-13T12:15:35.208Z,6.65
2022-10-13T12:18:21.261Z,6.45
2022-10-13T12:20:55.666Z,6.68
2022-10-13T12:23:26.184Z,7.03
2022-10-13T12:25:58.424Z,6.97
2022-10-13T12:28:31.870Z,6.28
2022-10-13T12:31:01.946Z,6.90
2022-10-13T12:33:35.285Z,6.13
2022-10-13T12:36:18.249Z,7.22
2022-10-13T12:38:51.708Z,6.68
2022-10-13T12:41:26.984Z,7.68
2022-10-13T12:44:01.090Z,6.53
2022-10-13T12:46:42.392Z,7.05
2022-10-13T12:49:17.133Z,6.60
2022-10-13T12:51:50.511Z,6.32
2022-10-13T12:54:24.603Z,6.72
2022-10-13T12:56:58.303Z,6.60
2022-10-13T12:59:30.693Z,6.57
2022-10-13T13:02:03.055Z,6.55
2022-10-13T13:04:42.773Z,7.20
2022-10-13T13:07:32.957Z,6.53
2022-10-13T13:10:15.462Z,5.70
2022-10-13T13:12:46.508Z,6.00
2022-10-13T13:15:35.017Z,6.20
2022-10-13T13:18:35.761Z,6.28
2022-10-13T13:21:07.302Z,6.78
2022-10-13T13:23:36.617Z,5.38
2022-10-13T13:26:14.463Z,5.60
2022-10-13T13:28:47.876Z,6.10
2022-10-13T13:31:21.338Z,6.13
2022-10-13T13:33:50.927Z,5.20
2022-10-13T13:36:22.159Z,5.43
2022-10-13T13:38:55.545Z,5.63
2022-10-13T13:41:27.852Z,5.50
2022-10-13T13:43:56.950Z,6.20
2022-10-13T13:46:29.067Z,5.40
2022-10-13T13:48:58.244Z,5.13
2022-10-13T13:51:27.306Z,5.85
2022-10-13T13:53:56.668Z,5.60
2022-10-13T13:56:26.220Z,5.13
2022-10-13T13:58:55.699Z,5.18
2022-10-13T14:01:25.755Z,5.55
2022-10-13T14:03:56.117Z,5.20
2022-10-13T14:06:25.754Z,6.85
2022-10-13T14:08:54.871Z,7.60
2022-10-13T14:11:23.915Z,6.28
2022-10-13T14:13:54.918Z,5.95
2022-10-13T14:16:31.335Z,7.20
2022-10-13T14:19:03.201Z,7.07
2022-10-13T14:21:32.135Z,6.10
2022-10-13T14:24:01.860Z,5.88
2022-10-13T14:26:31.177Z,6.63
2022-10-13T14:29:00.423Z,6.75
2022-10-13T14:31:29.426Z,6.70
2022-10-13T14:33:58.426Z,8.23
2022-10-13T14:36:31.284Z,7.40
2022-10-13T14:39:00.296Z,8.93
2022-10-13T14:41:29.408Z,7.35
2022-10-13T14:43:58.779Z,6.70
2022-10-13T14:46:27.898Z,6.45
2022-10-13T14:48:58.743Z,7.55
2022-10-13T14:51:27.799Z,7.25
2022-10-13T14:53:58.142Z,7.05
2022-10-13T14:56:29.934Z,7.25
2022-10-13T14:59:02.859Z,7.57
2022-10-13T15:01:41.524Z,7.47
2022-10-13T15:04:11.146Z,8.30
2022-10-13T15:06:40.583Z,8.55
2022-10-13T15:09:12.317Z,9.80
2022-10-13T15:11:41.262Z,9.40
2022-10-13T15:14:10.802Z,9.80
2022-10-13T15:16:39.763Z,10.70
2022-10-13T15:19:08.726Z,10.32
2022-10-13T15:21:37.832Z,9.90
2022-10-13T15:24:08.214Z,8.98
2022-10-13T15:26:38.589Z,9.02
2022-10-13T15:29:07.605Z,10.10
2022-10-13T15:31:36.549Z,11.07
2022-10-13T15:34:05.498Z,11.13
2022-10-13T15:36:34.479Z,9.65
2022-10-13T15:39:03.507Z,10.07
2022-10-13T15:41:32.684Z,10.05
2022-10-13T15:44:02.998Z,10.18
2022-10-13T15:46:32.020Z,10.18
2022-10-13T15:49:00.960Z,9.70
2022-10-13T15:51:30.172Z,9.68
2022-10-13T15:53:59.166Z,10.25
2022-10-13T15:56:28.149Z,10.02
2022-10-13T15:58:57.396Z,8.85
2022-10-13T16:01:27.873Z,9.88
2022-10-13T16:03:57.991Z,9.73
2022-10-13T16:06:28.034Z,9.70
2022-10-13T16:08:57.013Z,9.70
2022-10-13T16:11:26.550Z,9.63
2022-10-13T16:13:55.490Z,10.57
2022-10-13T16:16:24.531Z,10.90
2022-10-13T16:18:55.138Z,10.98
2022-10-13T16:21:26.910Z,10.20
2022-10-13T16:23:55.846Z,10.25
2022-10-13T16:26:24.957Z,9.90
2022-10-13T16:28:56.674Z,10.93
2022-10-13T16:31:30.675Z,10.52
2022-10-13T16:34:04.770Z,10.90
2022-10-13T16:36:33.725Z,10.27
2022-10-13T16:39:02.823Z,11.43
2022-10-13T16:41:31.899Z,11.98
2022-10-13T16:44:01.033Z,10.77
2022-10-13T16:46:33.328Z,11.55
2022-10-13T16:49:03.737Z,12.00
2022-10-13T16:51:32.916Z,11.10
2022-10-13T16:54:04.508Z,11.45
2022-10-13T16:56:34.250Z,11.75
2022-10-13T16:59:05.410Z,11.93
2022-10-13T17:01:40.759Z,12.32
2022-10-13T17:04:11.179Z,12.02
2022-10-13T17:06:41.016Z,12.43
2022-10-13T17:09:12.266Z,12.13
2022-10-13T17:11:46.612Z,11.20
2022-10-13T17:14:15.592Z,12.82
2022-10-13T17:16:45.087Z,12.15
2022-10-13T17:19:15.551Z,12.40
2022-10-13T17:21:56.255Z,12.13
2022-10-13T17:24:29.881Z,12.18
2022-10-13T17:26:59.121Z,12.55
2022-10-13T17:29:29.649Z,12.70
2022-10-13T17:31:58.588Z,12.15
2022-10-13T17:34:28.882Z,11.10
2022-10-13T17:37:01.822Z,11.43
2022-10-13T17:39:31.106Z,11.45
2022-10-13T17:42:00.446Z,11.90
2022-10-13T17:44:36.790Z,11.73
2022-10-13T17:47:08.472Z,16.48
2022-10-13T17:49:39.341Z,13.45
2022-10-13T17:52:12.473Z,13.10
2022-10-13T17:54:43.362Z,11.88
2022-10-13T17:57:12.272Z,13.32
2022-10-13T17:59:41.234Z,12.38
2022-10-13T18:02:11.302Z,13.70
2022-10-13T18:04:41.862Z,12.10
2022-10-13T18:07:10.858Z,12.15
2022-10-13T18:09:40.039Z,12.05
2022-10-13T18:12:09.934Z,12.10
2022-10-13T18:14:39.120Z,11.77
2022-10-13T18:17:08.081Z,11.05
2022-10-13T18:19:40.241Z,12.00
2022-10-13T18:22:11.190Z,11.35
2022-10-13T18:24:40.134Z,12.65
2022-10-13T18:27:09.064Z,12.48
2022-10-13T18:29:40.178Z,12.77
2022-10-13T18:32:09.142Z,13.38
2022-10-13T18:34:38.196Z,12.77
2022-10-13T18:37:07.487Z,14.50
2022-10-13T18:39:38.515Z,12.70
2022-10-13T18:42:07.878Z,11.93
2022-10-13T18:44:38.182Z,13.38
2022-10-13T18:47:07.462Z,14.00
2022-10-13T18:49:37.157Z,13.05
2022-10-13T18:52:06.358Z,13.45
2022-10-13T18:54:40.131Z,14.52
2022-10-13T18:57:09.200Z,14.02
2022-10-13T18:59:39.382Z,13.93
2022-10-13T19:02:08.375Z,20.35
2022-10-13T19:04:37.767Z,14.25
2022-10-13T19:07:06.893Z,15.10
2022-10-13T19:09:36.005Z,14.07
2022-10-13T19:12:06.723Z,13.88
2022-10-13T19:14:35.855Z,12.73
2022-10-13T19:17:05.110Z,13.88
2022-10-13T19:19:36.299Z,14.57
2022-10-13T19:22:05.430Z,13.70
2022-10-13T19:24:34.545Z,14.02
2022-10-13T19:27:03.579Z,13.23
2022-10-13T19:29:34.505Z,14.25
2022-10-13T19:32:03.546Z,14.75
2022-10-13T19:34:32.549Z,14.40
2022-10-13T19:37:03.457Z,13.82
2022-10-13T19:39:34.484Z,13.80
2022-10-13T19:42:03.845Z,13.30
2022-10-13T19:44:34.552Z,14.32
2022-10-13T19:47:03.510Z,15.82
2022-10-13T19:49:32.523Z,13.48
2022-10-13T19:52:01.609Z,13.95
2022-10-13T19:54:33.992Z,13.48
2022-10-13T19:57:03.979Z,13.40
2022-10-13T19:59:34.672Z,14.13
2022-10-13T20:02:08.212Z,13.85
2022-10-13T20:04:37.219Z,13.55
2022-10-13T20:07:06.211Z,13.48
2022-10-13T20:09:35.275Z,14.40
2022-10-13T20:12:09.442Z,12.35
2022-10-13T20:14:43.935Z,13.98
2022-10-13T20:17:12.999Z,12.63
2022-10-13T20:19:43.299Z,13.95
2022-10-13T20:22:12.276Z,12.82
2022-10-13T20:24:43.350Z,14.15
2022-10-13T20:27:12.417Z,14.93
2022-10-13T20:29:44.562Z,12.85
2022-10-13T20:32:15.090Z,12.60
2022-10-13T20:34:44.426Z,12.43
2022-10-13T20:37:13.435Z,13.65
2022-10-13T20:39:42.360Z,14.25
2022-10-13T20:42:11.341Z,12.95
2022-10-13T20:44:40.678Z,13.88
2022-10-13T20:47:11.105Z,12.45
2022-10-13T20:49:40.140Z,14.32
2022-10-13T20:52:09.826Z,12.90
2022-10-13T20:54:38.851Z,12.48
2022-10-13T20:57:08.179Z,13.27
2022-10-13T20:59:37.333Z,12.27
2022-10-13T21:02:06.438Z,12.85
2022-10-13T21:04:36.762Z,12.80
2022-10-13T21:07:05.759Z,13.77
2022-10-13T21:09:35.923Z,13.77
2022-10-13T21:12:06.111Z,13.05
2022-10-13T21:14:35.321Z,12.75
2022-10-13T21:17:04.271Z,12.00
2022-10-13T21:19:33.157Z,12.80
2022-10-13T21:22:03.534Z,12.32
2022-10-13T21:24:32.742Z,13.15
2022-10-13T21:27:01.826Z,13.45
2022-10-13T21:29:31.110Z,13.45
2022-10-13T21:32:00.051Z,14.07
2022-10-13T21:34:29.007Z,13.27
2022-10-13T21:36:58.074Z,13.07
2022-10-13T21:39:28.527Z,12.75
2022-10-13T21:41:59.792Z,12.27
2022-10-13T21:44:31.068Z,11.98
2022-10-13T21:47:00.124Z,13.35
2022-10-13T21:49:29.092Z,13.38
2022-10-13T21:51:58.205Z,13.20
2022-10-13T21:54:28.607Z,13.80
2022-10-13T21:56:57.694Z,14.77
2022-10-13T21:59:26.672Z,13.45
2022-10-13T22:01:55.875Z,13.32
2022-10-13T22:04:24.849Z,12.90
2022-10-13T22:06:53.820Z,14.45
2022-10-13T22:09:29.071Z,12.50
2022-10-13T22:12:00.780Z,12.80
2022-10-13T22:14:29.817Z,11.55
2022-10-13T22:16:58.854Z,11.80
2022-10-13T22:19:27.918Z,12.70
2022-10-13T22:21:56.930Z,13.25
2022-10-13T22:24:30.358Z,12.70
2022-10-13T22:26:59.292Z,12.48
2022-10-13T22:29:28.320Z,12.95
2022-10-13T22:32:00.178Z,10.68
2022-10-13T22:34:29.227Z,12.40
2022-10-13T22:36:58.194Z,12.63
2022-10-13T22:39:27.518Z,12.35
2022-10-13T22:41:58.597Z,13.25
2022-10-13T22:44:27.836Z,12.32
2022-10-13T22:46:56.907Z,13.75
2022-10-13T22:49:26.209Z,11.85
2022-10-13T22:51:55.248Z,12.25
2022-10-13T22:54:24.426Z,11.75
2022-10-13T22:56:54.753Z,11.45
2022-10-13T22:59:25.132Z,13.32
2022-10-13T23:01:54.074Z,12.27
2022-10-13T23:04:23.213Z,11.02
2022-10-13T23:06:52.256Z,12.27
2022-10-13T23:09:21.468Z,12.30
2022-10-13T23:11:50.429Z,11.60
2022-10-13T23:14:20.837Z,10.02
2022-10-13T23:16:51.143Z,11.50
2022-10-13T23:19:20.460Z,10.85
2022-10-13T23:21:49.646Z,11.85
2022-10-13T23:24:18.700Z,11.75
2022-10-13T23:26:47.610Z,11.15
2022-10-13T23:29:16.715Z,11.07
2022-10-13T23:31:45.719Z,11.00
2022-10-13T23:34:16.079Z,10.63
2022-10-13T23:36:45.112Z,11.48
2022-10-13T23:39:14.136Z,10.80
2022-10-13T23:41:43.143Z,11.48
2022-10-13T23:44:12.146Z,10.80
2022-10-13T23:46:41.171Z,10.52
2022-10-13T23:49:15.341Z,10.30
2022-10-13T23:51:45.429Z,11.27
2022-10-13T23:54:14.407Z,11.05
2022-10-13T23:56:43.327Z,10.32
2022-10-13T23:59:12.291Z,10.85
